Time;durP1;ratioP1;P1;durP2;ratioP2;P2;SDS_P1;SDS_P2;PMS_P1;PMS_P2;Temp;Humidity;BMP_temperature;BMP_pressure;BME280_temperature;BME280_humidity;BME280_pressure;Samples;Min_cycle;Max_cycle;Signal;HPM_P1;HPM_P2
2022/11/19 00:01:13;;;;;;;28.48;4.30;;;15.70;99.90;;;;;;4991833;28;20398;-70
2022/11/19 00:04:17;;;;;;;32.30;4.75;;;15.70;99.90;;;;;;4991537;28;20072;-68
2022/11/19 00:07:21;;;;;;;21.63;4.22;;;15.70;99.90;;;;;;4991887;28;20045;-70
2022/11/19 00:10:25;;;;;;;15.77;4.03;;;15.70;99.90;;;;;;4991597;28;20042;-69
2022/11/19 00:13:28;;;;;;;21.63;4.30;;;15.80;99.90;;;;;;4991756;28;20045;-70
2022/11/19 00:16:32;;;;;;;27.40;4.70;;;15.60;99.90;;;;;;4990266;28;20597;-70
2022/11/19 00:19:36;;;;;;;25.25;4.40;;;15.50;99.90;;;;;;4991523;28;20053;-68
2022/11/19 00:22:41;;;;;;;28.35;6.85;;;15.40;99.90;;;;;;4991322;28;20065;-69
2022/11/19 00:25:45;;;;;;;18.60;5.13;;;15.40;99.90;;;;;;4991460;28;20050;-70
2022/11/19 00:28:49;;;;;;;30.23;4.53;;;15.50;99.90;;;;;;4991327;28;20050;-70
2022/11/19 00:31:52;;;;;;;25.65;5.82;;;15.40;99.90;;;;;;4991477;28;20050;-69
2022/11/19 00:34:57;;;;;;;26.95;6.15;;;15.40;99.90;;;;;;4991676;28;20045;-69
2022/11/19 00:38:01;;;;;;;25.38;5.10;;;15.30;99.90;;;;;;4991378;28;20046;-69
2022/11/19 00:41:05;;;;;;;35.85;6.05;;;15.30;99.90;;;;;;4991504;28;20049;-69
2022/11/19 00:44:09;;;;;;;30.33;6.85;;;15.30;99.90;;;;;;4991159;28;20101;-69
2022/11/19 00:47:13;;;;;;;28.92;6.78;;;15.30;99.90;;;;;;4991323;28;20046;-70
2022/11/19 00:50:18;;;;;;;23.88;6.05;;;15.30;99.90;;;;;;4990278;28;20045;-68
2022/11/19 00:53:22;;;;;;;21.30;5.75;;;15.20;99.90;;;;;;4991111;28;20042;-70
2022/11/19 00:56:27;;;;;;;20.98;4.43;;;15.30;99.90;;;;;;4991116;28;20394;-69
2022/11/19 00:59:30;;;;;;;26.85;5.38;;;15.30;99.90;;;;;;4991330;28;20042;-70
2022/11/19 01:02:34;;;;;;;22.58;4.47;;;15.20;99.90;;;;;;4990997;28;20496;-70
2022/11/19 01:05:38;;;;;;;22.27;5.25;;;15.10;99.90;;;;;;4991270;28;20049;-69
2022/11/19 01:08:42;;;;;;;26.67;5.43;;;15.00;99.90;;;;;;4991291;28;20363;-69
2022/11/19 01:11:46;;;;;;;28.00;6.22;;;14.90;99.90;;;;;;4991308;28;20045;-69
2022/11/19 01:14:50;;;;;;;23.05;6.22;;;14.80;99.90;;;;;;4991135;28;20501;-69
2022/11/19 01:17:54;;;;;;;22.48;6.57;;;14.80;99.90;;;;;;4991002;28;20049;-70
2022/11/19 01:20:58;;;;;;;29.02;7.15;;;14.80;99.90;;;;;;4991127;28;20045;-70
2022/11/19 01:24:04;;;;;;;26.52;6.38;;;14.90;99.90;;;;;;4991198;28;20061;-70
2022/11/19 01:27:08;;;;;;;28.98;6.40;;;15.00;99.90;;;;;;4991189;28;20041;-69
2022/11/19 01:30:12;;;;;;;25.25;6.57;;;14.90;99.90;;;;;;4992967;28;20053;-69
2022/11/19 01:33:16;;;;;;;27.58;6.78;;;14.90;99.90;;;;;;4994698;28;20057;-70
2022/11/19 01:36:22;;;;;;;30.23;6.35;;;15.00;99.90;;;;;;4994432;28;20049;-69
2022/11/19 01:39:26;;;;;;;30.40;6.95;;;15.00;99.90;;;;;;4994447;28;20045;-69
2022/11/19 01:42:52;;;;;;;29.23;7.45;;;15.00;99.90;;;;;;4994519;28;20042;-69
2022/11/19 01:45:56;;;;;;;29.60;7.75;;;14.90;99.90;;;;;;4994457;28;20085;-70
2022/11/19 01:49:07;;;;;;;23.70;6.53;;;14.90;99.90;;;;;;4994234;28;20057;-70
2022/11/19 01:52:12;;;;;;;26.02;6.43;;;15.00;99.90;;;;;;4994151;28;20062;-70
2022/11/19 01:55:17;;;;;;;19.58;6.22;;;15.00;99.90;;;;;;4994218;28;20049;-69
2022/11/19 01:58:23;;;;;;;32.67;6.72;;;15.00;99.90;;;;;;4994299;28;20050;-69
2022/11/19 02:01:28;;;;;;;28.45;6.50;;;15.10;99.90;;;;;;4994802;28;20204;-69
2022/11/19 02:04:34;;;;;;;23.52;5.72;;;15.10;99.90;;;;;;4993883;28;20061;-69
2022/11/19 02:07:42;;;;;;;20.25;6.22;;;15.20;99.90;;;;;;4994125;28;20041;-70
2022/11/19 02:11:04;;;;;;;28.95;7.47;;;14.90;99.90;;;;;;4994075;28;20414;-68
2022/11/19 02:14:20;;;;;;;34.22;7.45;;;14.70;99.90;;;;;;4993948;28;20098;-70
2022/11/19 02:17:45;;;;;;;29.25;6.78;;;14.60;99.90;;;;;;4993855;28;20496;-70
2022/11/19 02:21:08;;;;;;;21.65;7.50;;;14.50;99.90;;;;;;4993597;28;20594;-70
2022/11/19 02:24:35;;;;;;;25.77;5.97;;;14.60;99.90;;;;;;4993395;28;20073;-70
2022/11/19 02:27:43;;;;;;;26.05;7.22;;;14.70;99.90;;;;;;4993462;28;20054;-69
2022/11/19 02:30:51;;;;;;;21.67;6.18;;;14.80;99.90;;;;;;4993238;28;20065;-69
2022/11/19 02:34:12;;;;;;;29.17;6.70;;;14.90;99.90;;;;;;4993229;28;20192;-69
2022/11/19 02:37:22;;;;;;;29.63;6.65;;;14.90;99.90;;;;;;4993307;28;20053;-70
2022/11/19 02:40:36;;;;;;;24.38;6.68;;;14.90;99.90;;;;;;4992897;28;20386;-69
2022/11/19 02:43:42;;;;;;;21.00;6.32;;;14.90;99.90;;;;;;4993162;28;20057;-70
2022/11/19 02:46:50;;;;;;;26.83;6.35;;;14.80;99.90;;;;;;4993442;28;20390;-69
2022/11/19 02:49:59;;;;;;;26.55;7.10;;;14.70;99.90;;;;;;4993065;28;20050;-69
2022/11/19 02:53:04;;;;;;;26.48;6.10;;;14.50;99.90;;;;;;4992762;28;20041;-70
2022/11/19 02:56:13;;;;;;;25.83;6.18;;;14.50;99.90;;;;;;4993039;28;20053;-69
2022/11/19 03:06:18;;;;;;;22.08;6.32;;;14.40;99.90;;;;;;4992741;28;20057;-69
2022/11/19 03:09:23;;;;;;;23.38;5.63;;;14.60;99.90;;;;;;4992826;28;20044;-69
2022/11/19 03:12:50;;;;;;;26.92;6.00;;;14.60;99.90;;;;;;4992911;28;20382;-68
2022/11/19 03:19:57;;;;;;;28.98;7.72;;;14.80;99.90;;;;;;4992435;28;20049;-68
2022/11/19 03:23:15;;;;;;;22.65;6.57;;;14.90;99.90;;;;;;4980238;28;20057;-69
2022/11/19 03:26:39;;;;;;;24.80;6.32;;;14.90;99.90;;;;;;4992561;28;20061;-69
2022/11/19 03:29:48;;;;;;;19.95;5.80;;;14.90;99.90;;;;;;4992119;28;20045;-69
2022/11/19 03:32:54;;;;;;;29.13;6.28;;;15.00;99.90;;;;;;4992303;28;20493;-69
2022/11/19 03:36:05;;;;;;;24.15;6.40;;;15.00;99.90;;;;;;4992217;28;20497;-68
2022/11/19 03:39:14;;;;;;;28.88;6.80;;;14.80;99.90;;;;;;4992358;28;20053;-69
2022/11/19 03:42:20;;;;;;;24.77;7.05;;;14.80;99.90;;;;;;4992200;28;20501;-67
2022/11/19 03:45:31;;;;;;;25.27;6.35;;;14.60;99.90;;;;;;4992086;28;20057;-69
2022/11/19 03:48:36;;;;;;;;;;;14.60;99.90;;;;;;4992766;28;20081;-69
2022/11/19 03:51:42;;;;;;;20.25;6.38;;;14.60;99.90;;;;;;4991415;28;19913;-69
2022/11/19 03:54:46;;;;;;;23.60;5.95;;;14.70;99.90;;;;;;4992287;28;20045;-69
2022/11/19 03:57:51;;;;;;;24.92;6.18;;;14.70;99.90;;;;;;4991885;28;20042;-69
2022/11/19 04:00:55;;;;;;;30.58;6.07;;;14.60;99.90;;;;;;4991933;28;20389;-68
2022/11/19 04:07:23;;;;;;;19.65;6.22;;;14.50;99.90;;;;;;4991763;28;20049;-68
2022/11/19 04:10:27;;;;;;;26.90;6.47;;;14.50;99.90;;;;;;4991731;28;20065;-68
2022/11/19 04:13:31;;;;;;;25.02;6.60;;;14.40;99.90;;;;;;4991571;28;20045;-68
2022/11/19 04:16:35;;;;;;;23.02;5.75;;;14.40;99.90;;;;;;4991719;28;20054;-69
2022/11/19 04:19:39;;;;;;;23.90;6.30;;;14.20;99.90;;;;;;4991509;28;20128;-70
2022/11/19 04:22:43;;;;;;;28.48;6.82;;;14.30;99.90;;;;;;5002116;28;20398;-69
2022/11/19 04:25:47;;;;;;;32.03;7.00;;;14.40;99.90;;;;;;4991541;28;20061;-70
2022/11/19 04:28:51;;;;;;;30.27;6.05;;;14.50;99.90;;;;;;4991365;28;20041;-69
2022/11/19 04:31:55;;;;;;;21.00;5.45;;;14.60;99.90;;;;;;4991538;28;20140;-69
2022/11/19 04:34:59;;;;;;;24.50;5.75;;;14.60;99.90;;;;;;4991763;28;20049;-68
2022/11/19 04:38:02;;;;;;;23.30;5.45;;;14.70;99.90;;;;;;4990788;28;20045;-69
2022/11/19 04:41:06;;;;;;;21.05;6.25;;;14.70;99.90;;;;;;4991493;28;20050;-68
2022/11/19 04:44:10;;;;;;;19.55;5.85;;;14.50;99.90;;;;;;4991457;28;20065;-70
2022/11/19 04:47:14;;;;;;;20.23;5.60;;;14.40;99.90;;;;;;4991607;28;20041;-70
2022/11/19 04:50:18;;;;;;;20.02;5.22;;;14.40;99.90;;;;;;4991571;28;20065;-69
2022/11/19 04:53:22;;;;;;;25.10;6.68;;;14.30;99.90;;;;;;4991242;28;20057;-69
2022/11/19 04:56:26;;;;;;;25.02;6.20;;;14.30;99.90;;;;;;4991385;28;20057;-68
2022/11/19 04:59:30;;;;;;;23.27;6.30;;;14.30;99.90;;;;;;4990649;28;20049;-69
2022/11/19 05:02:34;;;;;;;20.95;5.43;;;14.40;99.90;;;;;;4991652;28;20049;-70
2022/11/19 05:05:38;;;;;;;22.05;5.97;;;14.50;99.90;;;;;;4995122;28;20505;-68
2022/11/19 05:08:42;;;;;;;27.25;6.20;;;14.60;99.90;;;;;;4995833;28;20041;-69
2022/11/19 05:11:46;;;;;;;20.83;5.05;;;14.60;99.90;;;;;;4995078;28;20041;-69
2022/11/19 05:14:50;;;;;;;20.42;5.95;;;14.70;99.90;;;;;;4994925;28;20045;-69
2022/11/19 05:17:54;;;;;;;20.52;6.13;;;14.70;99.90;;;;;;4995371;28;20049;-70
2022/11/19 05:20:58;;;;;;;20.50;5.53;;;14.70;99.90;;;;;;4995314;28;20041;-69
2022/11/19 05:24:02;;;;;;;23.20;5.82;;;14.80;99.90;;;;;;4995199;28;20069;-68
2022/11/19 05:27:06;;;;;;;25.65;7.07;;;14.80;99.90;;;;;;4995245;28;20049;-69
2022/11/19 05:30:10;;;;;;;20.27;6.10;;;14.90;99.90;;;;;;4994392;28;20061;-69
2022/11/19 05:33:14;;;;;;;15.63;6.38;;;14.80;99.90;;;;;;4994858;28;20061;-68
2022/11/19 05:36:18;;;;;;;29.77;7.00;;;14.50;99.90;;;;;;4994486;28;20045;-68
2022/11/19 05:39:22;;;;;;;24.27;5.97;;;14.50;99.90;;;;;;4994533;28;20393;-68
2022/11/19 05:42:26;;;;;;;21.48;5.75;;;14.50;99.90;;;;;;4994716;28;20045;-69
2022/11/19 05:45:30;;;;;;;18.88;5.90;;;14.60;99.90;;;;;;4994175;28;20069;-69
2022/11/19 05:48:33;;;;;;;21.85;6.70;;;14.60;99.90;;;;;;5004983;28;20041;-68
2022/11/19 05:51:37;;;;;;;20.40;6.07;;;14.50;99.90;;;;;;4994470;28;20526;-70
2022/11/19 05:54:41;;;;;;;19.17;6.35;;;14.50;99.90;;;;;;4994176;28;20037;-69
2022/11/19 05:57:45;;;;;;;18.17;5.88;;;14.60;99.90;;;;;;4994218;28;20045;-69
2022/11/19 06:00:54;;;;;;;20.95;6.13;;;14.40;99.90;;;;;;4994296;28;20053;-68
2022/11/19 06:03:58;;;;;;;19.55;6.20;;;14.30;99.90;;;;;;4994066;28;20077;-70
2022/11/19 06:07:01;;;;;;;19.45;6.53;;;14.30;99.90;;;;;;4994149;28;20038;-69
2022/11/19 06:10:06;;;;;;;28.08;6.68;;;14.20;99.90;;;;;;4993892;28;20106;-69
2022/11/19 06:13:10;;;;;;;18.40;6.13;;;14.20;99.90;;;;;;4993772;28;20045;-69
2022/11/19 06:16:15;;;;;;;27.63;6.20;;;;;;;;;;4992868;28;20106;-73
2022/11/19 06:19:19;;;;;;;20.17;6.25;;;14.40;99.90;;;;;;4993813;28;20053;-68
2022/11/19 06:22:23;;;;;;;36.22;7.20;;;14.50;99.90;;;;;;4993772;28;20057;-69
2022/11/19 06:25:27;;;;;;;22.05;6.65;;;14.60;99.90;;;;;;4993311;28;20046;-70
2022/11/19 06:28:31;;;;;;;18.40;6.32;;;14.60;99.90;;;;;;4993502;28;20390;-68
2022/11/19 06:31:34;;;;;;;23.10;6.95;;;14.50;99.90;;;;;;4993188;28;20058;-69
2022/11/19 06:34:38;;;;;;;18.48;6.45;;;14.30;99.90;;;;;;4993346;28;20041;-68
2022/11/19 06:37:42;;;;;;;22.65;7.95;;;14.30;99.90;;;;;;4993524;28;20053;-69
2022/11/19 06:40:46;;;;;;;18.77;7.20;;;14.20;99.90;;;;;;4993479;28;20497;-69
2022/11/19 06:43:50;;;;;;;25.67;8.00;;;14.10;99.90;;;;;;5003803;28;20053;-69
2022/11/19 06:46:54;;;;;;;25.13;7.85;;;14.20;99.90;;;;;;4993323;28;20057;-71
2022/11/19 06:49:58;;;;;;;27.75;6.65;;;14.30;99.90;;;;;;4992919;28;20045;-68
2022/11/19 06:53:02;;;;;;;26.38;7.15;;;14.30;99.90;;;;;;4992828;28;20053;-69
2022/11/19 06:56:07;;;;;;;19.50;6.63;;;14.30;99.90;;;;;;4992901;28;20045;-69
2022/11/19 06:59:11;;;;;;;17.88;6.20;;;14.30;99.90;;;;;;4992817;28;20401;-69
2022/11/19 07:02:15;;;;;;;22.70;6.20;;;14.40;99.90;;;;;;4992863;28;20061;-69
2022/11/19 07:05:19;;;;;;;18.20;6.20;;;14.40;99.90;;;;;;4992716;28;20061;-68
2022/11/19 07:08:23;;;;;;;25.45;7.05;;;14.50;99.90;;;;;;4992177;28;20041;-72
2022/11/19 07:11:28;;;;;;;22.75;6.07;;;14.50;99.90;;;;;;4992812;28;20398;-67
2022/11/19 07:14:32;;;;;;;22.02;5.90;;;14.50;99.90;;;;;;4992729;28;20049;-68
2022/11/19 07:17:36;;;;;;;20.35;5.70;;;14.60;99.90;;;;;;4992643;28;20049;-67
2022/11/19 07:20:40;;;;;;;17.40;5.80;;;14.70;99.90;;;;;;4992412;28;20045;-66
2022/11/19 07:23:44;;;;;;;16.77;5.68;;;14.70;99.90;;;;;;4992433;28;20049;-67
2022/11/19 07:26:48;;;;;;;18.33;5.63;;;14.80;99.90;;;;;;4992386;28;20081;-64
2022/11/19 07:29:52;;;;;;;18.85;6.28;;;14.80;99.90;;;;;;4992025;28;20046;-66
2022/11/19 07:32:57;;;;;;;22.00;6.72;;;14.70;99.90;;;;;;4992472;28;20053;-66
2022/11/19 07:36:01;;;;;;;17.42;6.10;;;14.70;99.90;;;;;;4992390;28;20112;-66
2022/11/19 07:39:05;;;;;;;20.73;6.65;;;14.70;99.90;;;;;;5002700;28;20069;-67
2022/11/19 07:45:32;;;;;;;22.10;6.88;;;14.70;99.90;;;;;;4991812;28;20072;-66
2022/11/19 07:48:35;;;;;;;17.45;6.78;;;14.70;99.90;;;;;;4991751;28;20049;-66
2022/11/19 07:51:39;;;;;;;18.88;6.70;;;14.70;99.90;;;;;;4991690;28;20065;-66
2022/11/19 07:54:44;;;;;;;25.15;8.05;;;14.70;99.90;;;;;;4992098;28;20053;-65
2022/11/19 07:57:48;;;;;;;21.17;7.28;;;14.70;99.90;;;;;;4991673;28;20090;-65
2022/11/19 08:00:51;;;;;;;22.58;7.72;;;14.70;99.90;;;;;;4991578;28;20104;-66
2022/11/19 08:03:55;;;;;;;33.75;8.18;;;14.80;99.90;;;;;;4991723;28;20408;-65
2022/11/19 08:07:00;;;;;;;28.77;8.02;;;14.80;99.90;;;;;;4992003;28;20509;-66
2022/11/19 08:10:05;;;;;;;32.95;8.82;;;14.90;99.90;;;;;;4991281;28;20045;-65
2022/11/19 08:13:10;;;;;;;24.48;7.53;;;14.90;99.90;;;;;;4991173;28;20049;-65
2022/11/19 08:19:38;;;;;;;19.98;5.40;;;15.00;99.90;;;;;;4991512;28;20045;-67
2022/11/19 08:22:42;;;;;;;14.98;5.10;;;15.00;99.90;;;;;;4991506;28;20045;-68
2022/11/19 08:25:45;;;;;;;19.10;5.72;;;15.10;99.90;;;;;;4991515;28;20057;-65
2022/11/19 08:28:50;;;;;;;19.60;5.10;;;15.10;99.90;;;;;;4991642;28;20398;-67
2022/11/19 08:31:54;;;;;;;22.50;4.65;;;15.00;99.90;;;;;;4991648;28;20058;-67
2022/11/19 08:34:57;;;;;;;20.08;5.45;;;15.10;99.90;;;;;;4991352;28;20057;-67
2022/11/19 08:38:02;;;;;;;19.55;5.97;;;15.10;99.90;;;;;;4991893;28;20071;-66
2022/11/19 08:44:28;;;;;;;14.88;4.72;;;15.10;99.90;;;;;;4994833;28;20513;-66
2022/11/19 08:47:32;;;;;;;18.52;5.25;;;15.10;99.90;;;;;;4995050;28;20050;-65
2022/11/19 08:50:36;;;;;;;13.23;3.90;;;15.10;99.90;;;;;;4994946;28;20585;-70
2022/11/19 08:53:40;;;;;;;16.10;4.20;;;15.10;99.90;;;;;;4994935;28;20045;-64
2022/11/19 08:56:44;;;;;;;14.75;3.40;;;15.20;99.90;;;;;;4995445;28;20049;-64
2022/11/19 08:59:48;;;;;;;15.07;3.90;;;15.20;99.90;;;;;;4995273;28;20045;-64
2022/11/19 09:02:53;;;;;;;20.25;4.70;;;15.20;99.90;;;;;;4995307;28;20390;-68
2022/11/19 09:05:58;;;;;;;17.58;4.90;;;15.20;99.90;;;;;;4994733;28;20057;-65
2022/11/19 09:09:04;;;;;;;21.15;5.43;;;15.20;99.90;;;;;;4993999;28;20033;-66
2022/11/19 09:12:08;;;;;;;19.98;5.53;;;15.20;99.90;;;;;;5005159;28;20057;-67
2022/11/19 09:15:12;;;;;;;16.77;4.55;;;15.20;99.90;;;;;;4994839;28;20493;-66
2022/11/19 09:18:16;;;;;;;22.70;5.45;;;15.20;99.90;;;;;;4994746;28;20042;-67
2022/11/19 09:21:20;;;;;;;16.40;4.38;;;15.30;99.90;;;;;;4994605;28;20519;-68
2022/11/19 09:24:24;;;;;;;17.52;3.80;;;15.30;99.90;;;;;;4994453;28;20061;-66
2022/11/19 09:27:29;;;;;;;14.38;3.08;;;15.30;99.90;;;;;;4994518;28;20041;-67
2022/11/19 09:30:33;;;;;;;17.95;3.40;;;15.40;99.90;;;;;;4994386;28;20057;-67
2022/11/19 09:33:41;;;;;;;15.68;3.53;;;15.40;99.90;;;;;;4994584;28;20524;-66
2022/11/19 09:36:45;;;;;;;14.45;4.03;;;15.30;99.90;;;;;;4994565;28;20064;-66
2022/11/19 09:39:49;;;;;;;14.70;4.95;;;15.30;99.90;;;;;;4994119;28;20038;-66
2022/11/19 09:43:14;;;;;;;15.80;5.57;;;15.30;99.90;;;;;;4994081;28;20045;-68
2022/11/19 09:46:44;;;;;;;11.02;4.22;;;15.40;99.90;;;;;;4993988;28;20512;-68
2022/11/19 09:50:08;;;;;;;15.95;5.55;;;15.40;99.90;;;;;;4992969;28;20053;-68
2022/11/19 09:53:17;;;;;;;19.35;5.38;;;15.40;99.90;;;;;;4994438;28;20153;-68
2022/11/19 09:56:29;;;;;;;14.95;4.68;;;15.40;99.90;;;;;;4994306;28;20042;-68
2022/11/19 09:59:40;;;;;;;13.05;5.28;;;15.50;99.90;;;;;;4993888;28;20120;-68
2022/11/19 10:02:44;;;;;;;15.63;6.67;;;15.50;99.90;;;;;;4993903;28;20050;-69
2022/11/19 10:06:03;;;;;;;15.55;5.75;;;15.50;99.90;;;;;;4993697;28;20053;-67
2022/11/19 10:09:29;;;;;;;10.93;4.60;;;15.60;99.90;;;;;;4993474;28;20045;-67
2022/11/19 10:12:38;;;;;;;9.70;3.75;;;15.60;99.90;;;;;;4991165;28;20049;-68
2022/11/19 10:16:01;;;;;;;13.98;4.72;;;15.70;99.90;;;;;;4993535;28;20045;-66
2022/11/19 10:19:35;;;;;;;17.80;9.13;;;15.80;99.90;;;;;;4993487;28;20042;-69
2022/11/19 10:22:50;;;;;;;4.50;1.75;;;15.90;99.90;;;;;;4996214;28;20042;-67
2022/11/19 10:26:02;;;;;;;4.20;1.50;;;16.00;99.90;;;;;;4992689;28;20058;-68
2022/11/19 10:29:20;;;;;;;5.25;2.00;;;16.10;99.90;;;;;;4993212;28;20049;-68
2022/11/19 10:32:31;;;;;;;5.75;1.52;;;16.20;99.90;;;;;;4993555;28;20505;-69
2022/11/19 10:35:44;;;;;;;6.63;1.85;;;16.30;99.90;;;;;;4994014;28;20053;-67
2022/11/19 10:38:55;;;;;;;4.05;1.60;;;16.40;99.90;;;;;;4993274;28;20400;-68
2022/11/19 10:42:27;;;;;;;3.00;1.40;;;16.40;99.90;;;;;;4993405;28;20050;-67
2022/11/19 10:45:32;;;;;;;3.15;1.17;;;16.50;99.90;;;;;;4993109;28;20053;-68
2022/11/19 10:48:40;;;;;;;6.50;1.45;;;16.50;99.90;;;;;;4992892;28;20060;-66
2022/11/19 10:51:44;;;;;;;5.47;1.80;;;16.50;99.90;;;;;;4992796;28;20505;-67
2022/11/19 10:54:51;;;;;;;2.58;1.50;;;16.50;99.90;;;;;;4993136;28;20049;-67
2022/11/19 10:58:21;;;;;;;3.13;1.50;;;16.60;99.90;;;;;;4992682;28;20065;-68
2022/11/19 11:01:32;;;;;;;3.55;1.75;;;16.60;99.90;;;;;;4992658;28;20045;-69
2022/11/19 11:05:01;;;;;;;6.15;1.90;;;16.60;99.90;;;;;;4992655;28;20049;-68
2022/11/19 11:08:10;;;;;;;6.05;2.80;;;16.70;99.90;;;;;;4992434;28;20037;-66
2022/11/19 11:14:53;;;;;;;6.88;2.20;;;16.70;99.90;;;;;;4992628;28;20053;-68
2022/11/19 11:18:08;;;;;;;6.38;2.33;;;16.80;99.90;;;;;;4992476;28;20049;-68
2022/11/19 11:21:39;;;;;;;6.68;1.50;;;16.80;99.90;;;;;;4992229;28;20106;-68
2022/11/19 11:24:43;;;;;;;5.78;1.58;;;16.80;99.90;;;;;;4992497;28;20050;-67
2022/11/19 11:28:13;;;;;;;3.47;1.50;;;16.90;99.90;;;;;;4992561;28;20049;-67
2022/11/19 11:31:29;;;;;;;4.72;1.95;;;16.90;99.90;;;;;;4992023;28;20049;-68
2022/11/19 11:34:42;;;;;;;3.45;1.60;;;16.90;99.90;;;;;;4992510;28;20041;-67
2022/11/19 11:37:50;;;;;;;4.97;2.10;;;16.90;99.90;;;;;;4990987;28;20629;-69
2022/11/19 11:41:01;;;;;;;2.88;1.65;;;17.00;99.90;;;;;;4992069;28;20065;-68
2022/11/19 11:44:14;;;;;;;5.15;2.03;;;17.00;99.90;;;;;;4992084;28;20050;-68
2022/11/19 11:47:35;;;;;;;6.28;1.83;;;17.00;99.90;;;;;;4991761;28;20074;-69
2022/11/19 11:50:44;;;;;;;8.43;2.20;;;17.00;99.90;;;;;;4991931;28;20062;-68
2022/11/19 11:54:28;;;;;;;3.67;1.70;;;17.10;99.90;;;;;;4991672;28;20529;-68
2022/11/19 11:57:32;;;;;;;5.60;1.50;;;17.10;99.90;;;;;;4991933;28;20053;-67
2022/11/19 12:00:42;;;;;;;6.53;2.03;;;17.10;99.90;;;;;;4991597;28;20049;-68
2022/11/19 12:03:54;;;;;;;6.82;2.22;;;17.20;99.90;;;;;;4991800;28;20065;-67
2022/11/19 12:07:18;;;;;;;3.42;1.83;;;17.20;99.90;;;;;;4991791;28;20524;-69
2022/11/19 12:10:34;;;;;;;4.35;1.85;;;17.30;99.90;;;;;;4991429;28;20037;-69
2022/11/19 12:14:00;;;;;;;5.05;1.90;;;17.30;99.90;;;;;;4991307;28;20053;-69
2022/11/19 12:17:29;;;;;;;5.30;1.83;;;17.40;99.90;;;;;;4991610;28;20050;-67
2022/11/19 12:20:48;;;;;;;7.50;3.80;;;17.40;99.90;;;;;;4991838;28;20504;-68
2022/11/19 12:24:06;;;;;;;11.35;5.75;;;17.40;99.90;;;;;;4991536;28;20049;-68
2022/11/19 12:27:35;;;;;;;8.45;3.42;;;17.40;99.90;;;;;;4991678;28;20062;-67
2022/11/19 12:30:42;;;;;;;5.03;1.80;;;17.40;99.90;;;;;;4986425;28;20042;-70
2022/11/19 12:34:20;;;;;;;8.70;5.10;;;17.50;99.90;;;;;;4991349;28;20057;-67
2022/11/19 12:38:03;;;;;;;33.03;20.15;;;17.40;99.90;;;;;;4991416;28;20042;-67
2022/11/19 12:41:26;;;;;;;15.23;7.50;;;17.40;99.90;;;;;;4924354;28;20265;-68
2022/11/19 12:44:45;;;;;;;8.23;3.78;;;17.50;99.90;;;;;;4991846;28;20142;-67
2022/11/19 12:48:26;;;;;;;5.68;3.30;;;17.50;99.90;;;;;;4991635;28;20062;-68
2022/11/19 12:51:35;;;;;;;10.13;3.55;;;17.50;99.90;;;;;;4991696;28;20118;-67
2022/11/19 12:55:16;;;;;;;9.65;3.85;;;17.50;99.90;;;;;;4991802;28;20053;-68
2022/11/19 12:58:39;;;;;;;10.18;3.85;;;17.60;99.90;;;;;;4991193;28;20041;-67
2022/11/19 13:01:48;;;;;;;11.55;4.88;;;17.60;99.90;;;;;;4991691;28;20401;-67
2022/11/19 13:05:10;;;;;;;6.32;2.45;;;17.70;99.90;;;;;;4991288;28;20057;-69
2022/11/19 13:08:27;;;;;;;3.90;1.10;;;17.70;99.90;;;;;;4991242;28;20509;-68
2022/11/19 13:11:55;;;;;;;9.10;2.03;;;17.80;99.90;;;;;;4991491;28;20118;-67
2022/11/19 13:15:27;;;;;;;5.93;1.10;;;17.90;99.90;;;;;;4991496;28;20057;-66
2022/11/19 13:18:35;;;;;;;6.68;1.15;;;18.10;99.90;;;;;;4990973;28;20050;-68
2022/11/19 13:21:59;;;;;;;5.32;1.33;;;18.30;99.90;;;;;;4991045;28;20042;-66
2022/11/19 13:25:19;;;;;;;9.35;1.50;;;18.40;99.90;;;;;;4993248;28;20045;-66
2022/11/19 13:28:29;;;;;;;6.10;1.25;;;18.40;99.90;;;;;;4994436;28;20401;-66
2022/11/19 13:31:50;;;;;;;5.38;1.38;;;18.50;99.90;;;;;;4994359;28;20292;-67
2022/11/19 13:35:03;;;;;;;8.80;1.77;;;18.50;99.90;;;;;;5004883;28;20045;-67
2022/11/19 13:38:43;;;;;;;14.95;3.53;;;18.60;99.90;;;;;;4993476;28;20106;-66
2022/11/19 13:45:16;;;;;;;7.95;1.60;;;18.70;99.90;;;;;;4994209;28;20414;-67
2022/11/19 13:48:30;;;;;;;11.70;2.05;;;18.70;99.90;;;;;;5004581;28;20038;-65
2022/11/19 13:51:39;;;;;;;15.85;2.45;;;18.70;99.90;;;;;;4994167;28;20402;-67
2022/11/19 13:54:44;;;;;;;16.70;2.17;;;18.70;99.90;;;;;;4994402;28;20052;-67
2022/11/19 13:57:48;;;;;;;8.18;2.05;;;18.70;99.90;;;;;;4993838;28;20049;-70
2022/11/19 14:01:11;;;;;;;10.95;2.13;;;18.70;99.90;;;;;;4994162;28;20038;-68
2022/11/19 14:04:52;;;;;;;14.48;2.63;;;18.60;99.90;;;;;;4994059;28;20061;-66
2022/11/19 14:08:08;;;;;;;11.33;2.07;;;18.60;99.90;;;;;;4994118;28;20517;-65
2022/11/19 14:11:27;;;;;;;16.13;2.13;;;18.60;99.90;;;;;;4993801;28;20053;-65
2022/11/19 14:29:00;;;;;;;15.85;3.28;;;18.60;99.90;;;;;;4993625;28;20049;-67
2022/11/19 14:32:05;;;;;;;13.32;2.42;;;18.50;99.90;;;;;;4993487;28;20058;-65
2022/11/19 14:35:24;;;;;;;13.18;3.00;;;18.40;99.90;;;;;;4993108;28;20057;-65
2022/11/19 14:38:36;;;;;;;11.55;2.83;;;18.40;99.90;;;;;;4993464;28;20049;-67
2022/11/19 14:41:41;;;;;;;;;;;18.40;99.90;;;;;;4992890;28;20053;-66
2022/11/19 14:45:05;;;;;;;17.00;3.20;;;18.40;99.90;;;;;;4993152;28;19910;-68
2022/11/19 14:48:13;;;;;;;14.40;3.45;;;18.30;99.90;;;;;;5003075;28;20061;-66
2022/11/19 14:51:27;;;;;;;12.20;2.40;;;18.30;99.90;;;;;;4993043;28;20057;-70
2022/11/19 14:54:57;;;;;;;19.33;3.13;;;18.30;99.90;;;;;;4992817;28;20049;-69
2022/11/19 14:58:05;;;;;;;25.63;3.97;;;18.20;99.90;;;;;;4993063;28;20061;-69
2022/11/19 15:01:15;;;;;;;23.83;4.80;;;18.20;99.90;;;;;;4992719;28;20042;-68
2022/11/19 15:04:22;;;;;;;31.85;4.47;;;18.20;99.90;;;;;;4992602;28;20042;-68
2022/11/19 15:07:32;;;;;;;31.85;4.65;;;18.20;99.90;;;;;;4992726;28;20053;-68
2022/11/19 15:11:08;;;;;;;32.85;4.03;;;18.10;99.90;;;;;;5003117;28;20049;-69
2022/11/19 15:14:28;;;;;;;41.65;5.60;;;18.10;99.90;;;;;;4992841;28;20053;-69
2022/11/19 15:17:34;;;;;;;24.92;4.55;;;18.10;99.90;;;;;;4991578;28;20050;-70
2022/11/19 15:20:59;;;;;;;27.48;3.88;;;18.00;99.90;;;;;;4992359;28;20045;-69
2022/11/19 15:24:40;;;;;;;23.15;3.17;;;18.00;99.90;;;;;;4992617;28;20041;-69
2022/11/19 15:27:56;;;;;;;31.70;4.20;;;17.90;99.90;;;;;;4992261;28;20058;-69
2022/11/19 15:31:18;;;;;;;20.05;3.05;;;17.90;99.90;;;;;;4992236;28;20079;-69
2022/11/19 15:34:22;;;;;;;17.45;4.22;;;17.90;99.90;;;;;;4992256;28;20050;-69
2022/11/19 15:37:45;;;;;;;23.75;3.53;;;17.90;99.90;;;;;;4992350;28;20509;-69
2022/11/19 15:40:53;;;;;;;23.60;3.85;;;17.90;99.90;;;;;;4991942;28;20390;-69
2022/11/19 15:44:04;;;;;;;33.70;4.68;;;17.90;99.90;;;;;;4991894;28;20402;-69
2022/11/19 15:47:17;;;;;;;34.05;5.22;;;18.00;99.90;;;;;;4991380;28;20057;-69
2022/11/19 15:50:23;;;;;;;28.70;3.65;;;18.00;99.90;;;;;;4991779;28;20536;-69
2022/11/19 15:53:27;;;;;;;28.38;5.85;;;18.00;99.90;;;;;;4992161;28;20049;-69
2022/11/19 15:56:35;;;;;;;27.70;4.32;;;18.00;99.90;;;;;;4991891;28;20065;-68
2022/11/19 15:59:39;;;;;;;31.35;5.10;;;18.00;99.90;;;;;;4992039;28;20045;-70
2022/11/19 16:02:50;;;;;;;33.30;4.57;;;18.00;99.90;;;;;;4991836;28;20061;-69
2022/11/19 16:06:29;;;;;;;35.17;4.10;;;18.00;99.90;;;;;;4991665;28;20057;-69
2022/11/19 16:09:33;;;;;;;20.70;4.05;;;18.00;99.90;;;;;;4991596;28;20390;-69
2022/11/19 16:20:17;;;;;;;29.48;4.13;;;18.00;99.90;;;;;;4991519;28;20041;-71
2022/11/19 16:23:24;;;;;;;23.23;3.50;;;18.00;99.90;;;;;;4991734;28;20049;-69
2022/11/19 16:26:28;;;;;;;22.38;4.07;;;18.00;99.90;;;;;;4991284;28;20057;-68
2022/11/19 16:29:35;;;;;;;28.13;3.97;;;18.00;99.90;;;;;;4991148;28;20061;-69
2022/11/19 16:32:39;;;;;;;27.35;4.20;;;18.00;99.90;;;;;;4991387;28;20505;-70
2022/11/19 16:35:43;;;;;;;25.13;3.58;;;18.10;99.90;;;;;;4991171;28;20513;-70
2022/11/19 16:38:49;;;;;;;31.90;4.43;;;18.10;99.90;;;;;;4991273;28;20045;-69
2022/11/19 16:45:27;;;;;;;23.85;3.72;;;18.10;99.90;;;;;;4991092;28;20601;-70
2022/11/19 16:48:49;;;;;;;27.65;4.88;;;18.00;99.90;;;;;;4991282;28;20049;-70
2022/11/19 16:51:53;;;;;;;22.65;4.03;;;18.10;99.90;;;;;;4991385;28;20154;-69
2022/11/19 16:54:59;;;;;;;29.27;4.55;;;18.10;99.90;;;;;;4991152;28;20521;-70
2022/11/19 16:58:13;;;;;;;27.13;5.10;;;18.10;99.90;;;;;;4991132;28;20046;-70
2022/11/19 17:01:17;;;;;;;40.92;6.75;;;18.10;99.90;;;;;;4995235;28;20050;-71
2022/11/19 17:04:26;;;;;;;37.15;5.70;;;18.10;99.90;;;;;;4995453;28;20053;-69
2022/11/19 17:07:30;;;;;;;26.75;5.72;;;18.10;99.90;;;;;;4994821;28;20065;-69
2022/11/19 17:10:34;;;;;;;34.80;5.50;;;18.10;99.90;;;;;;4994884;28;20041;-70
2022/11/19 17:13:38;;;;;;;26.58;4.45;;;18.10;99.90;;;;;;4994649;28;20054;-70
2022/11/19 17:16:51;;;;;;;25.45;4.40;;;18.10;99.90;;;;;;4993577;28;20069;-72